Time;durP1;ratioP1;P1;durP2;ratioP2;P2;SDS_P1;SDS_P2;PMS_P1;PMS_P2;Temp;Humidity;BMP_temperature;BMP_pressure;BME280_temperature;BME280_humidity;BME280_pressure;Samples;Min_cycle;Max_cycle;Signal;HPM_P1;HPM_P2
2022/09/09 00:01:31;;;;;;;2.47;1.50;;;23.30;53.90;;;;;;4980982;28;20441;-46
2022/09/09 00:04:20;;;;;;;2.20;1.30;;;23.50;53.70;;;;;;4973121;28;20482;-47
2022/09/09 00:07:17;;;;;;;1.70;1.40;;;23.60;53.20;;;;;;4978360;28;20600;-47
2022/09/09 00:09:50;;;;;;;1.77;1.33;;;23.60;52.60;;;;;;4981786;28;20465;-49
2022/09/09 00:12:24;;;;;;;1.30;1.20;;;23.60;52.80;;;;;;4977454;28;20458;-47
2022/09/09 00:15:07;;;;;;;4.37;1.20;;;23.70;52.50;;;;;;4979734;28;20445;-46
2022/09/09 00:17:36;;;;;;;1.27;1.13;;;23.80;52.10;;;;;;4980390;28;20445;-47
2022/09/09 00:20:18;;;;;;;5.37;1.50;;;23.90;52.10;;;;;;4983108;28;20450;-47
2022/09/09 00:23:19;;;;;;;1.30;1.20;;;23.90;51.80;;;;;;4978664;28;20489;-50
2022/09/09 00:26:34;;;;;;;1.83;1.73;;;24.00;51.80;;;;;;4975971;28;20821;-46
2022/09/09 00:29:12;;;;;;;1.30;1.10;;;24.00;51.70;;;;;;4989185;28;20469;-48
2022/09/09 00:31:38;;;;;;;3.70;1.40;;;24.10;51.50;;;;;;4987335;28;20509;-46
2022/09/09 00:34:13;;;;;;;3.33;1.40;;;24.10;51.20;;;;;;4987241;28;20511;-46
2022/09/09 00:36:40;;;;;;;2.03;1.23;;;24.10;51.20;;;;;;4987573;28;20456;-49
2022/09/09 00:39:24;;;;;;;2.67;1.30;;;24.20;51.10;;;;;;4986006;28;20449;-46
2022/09/09 00:42:14;;;;;;;8.73;1.53;;;24.20;50.50;;;;;;4983323;28;20453;-46
2022/09/09 00:45:21;;;;;;;2.30;1.20;;;24.10;51.10;;;;;;4978123;28;20466;-46
2022/09/09 00:47:54;;;;;;;2.07;1.50;;;24.10;51.30;;;;;;5002383;28;20504;-48
2022/09/09 00:50:58;;;;;;;1.67;1.57;;;24.10;50.80;;;;;;4979713;28;20498;-48
2022/09/09 00:53:51;;;;;;;1.80;1.30;;;24.20;50.40;;;;;;4985571;28;20957;-48
2022/09/09 00:56:36;;;;;;;2.30;1.40;;;24.20;50.60;;;;;;4987338;28;20483;-51
2022/09/09 00:59:28;;;;;;;3.07;1.80;;;24.10;50.30;;;;;;4981120;28;20434;-47
2022/09/09 01:01:54;;;;;;;1.97;1.53;;;24.20;49.80;;;;;;4982558;28;20442;-46
2022/09/09 01:04:30;;;;;;;2.50;1.60;;;24.20;49.50;;;;;;4987617;28;20557;-46
2022/09/09 01:07:15;;;;;;;1.83;1.40;;;24.10;49.50;;;;;;4983624;28;20831;-50
2022/09/09 01:09:57;;;;;;;2.70;1.63;;;24.10;49.80;;;;;;4984759;28;20469;-50
2022/09/09 01:12:43;;;;;;;2.50;1.40;;;24.10;49.90;;;;;;4986673;28;20461;-46
2022/09/09 01:15:12;;;;;;;3.83;1.63;;;24.00;50.10;;;;;;4982673;28;20570;-47
2022/09/09 01:18:03;;;;;;;2.03;1.80;;;23.90;49.90;;;;;;4987074;28;20453;-47
2022/09/09 01:21:10;;;;;;;1.60;1.37;;;23.80;50.40;;;;;;4983298;28;20449;-50
2022/09/09 01:23:49;;;;;;;2.70;1.60;;;23.70;50.20;;;;;;4997939;28;21039;-49
2022/09/09 01:26:32;;;;;;;2.17;1.60;;;23.60;50.20;;;;;;4987973;28;20441;-47
2022/09/09 01:28:58;;;;;;;5.33;2.50;;;23.60;51.10;;;;;;4980959;28;20960;-47
2022/09/09 01:31:32;;;;;;;3.43;1.60;;;23.60;51.00;;;;;;4987963;28;20442;-47
2022/09/09 01:33:57;;;;;;;2.13;1.50;;;23.60;50.90;;;;;;4978238;28;20184;-49
2022/09/09 01:36:34;;;;;;;2.73;1.50;;;23.30;50.30;;;;;;4984086;28;20445;-47
2022/09/09 01:38:59;;;;;;;1.77;1.50;;;23.20;51.70;;;;;;4989372;28;20221;-48
2022/09/09 01:41:25;;;;;;;3.50;1.40;;;23.20;51.50;;;;;;4983958;28;20753;-46
2022/09/09 01:43:51;;;;;;;1.80;1.30;;;23.20;51.80;;;;;;4990176;28;20277;-47
2022/09/09 01:46:20;;;;;;;2.33;1.60;;;22.90;51.50;;;;;;4983813;28;20200;-46
2022/09/09 01:48:46;;;;;;;3.87;1.77;;;22.60;52.80;;;;;;4979886;28;21039;-46
2022/09/09 01:51:12;;;;;;;13.00;2.00;;;22.40;53.80;;;;;;4990602;28;20444;-46
2022/09/09 01:53:41;;;;;;;1.70;1.20;;;22.50;55.60;;;;;;4991505;28;20195;-47
2022/09/09 01:56:22;;;;;;;1.77;1.17;;;22.60;55.10;;;;;;4985916;28;20725;-46
2022/09/09 01:59:06;;;;;;;1.43;1.23;;;22.90;54.50;;;;;;4985724;28;20457;-47
2022/09/09 02:01:42;;;;;;;2.10;1.23;;;23.20;53.30;;;;;;4979551;28;20529;-46
2022/09/09 02:04:27;;;;;;;3.03;1.77;;;23.40;52.80;;;;;;4987288;28;20461;-47
2022/09/09 02:06:55;;;;;;;1.23;1.13;;;23.50;52.80;;;;;;4984689;28;20881;-46
2022/09/09 02:09:23;;;;;;;3.77;1.40;;;23.60;52.00;;;;;;4983047;28;20437;-48
2022/09/09 02:11:58;;;;;;;1.73;1.27;;;23.60;51.70;;;;;;4988466;28;20509;-46
2022/09/09 02:14:32;;;;;;;2.63;1.47;;;23.70;52.00;;;;;;4984391;28;20971;-46
2022/09/09 02:17:03;;;;;;;2.70;1.40;;;23.80;51.70;;;;;;4985033;28;20505;-47
2022/09/09 02:19:41;;;;;;;1.47;1.17;;;23.90;51.20;;;;;;4984646;28;20474;-47
2022/09/09 02:22:07;;;;;;;2.50;1.60;;;24.00;51.40;;;;;;4983130;28;20977;-47
2022/09/09 02:24:38;;;;;;;3.13;1.30;;;24.00;50.90;;;;;;4986646;28;20481;-47
2022/09/09 02:27:08;;;;;;;2.83;1.30;;;24.00;50.80;;;;;;4982200;28;20729;-48
2022/09/09 02:29:41;;;;;;;1.10;1.00;;;23.80;51.20;;;;;;4990594;28;20446;-47
2022/09/09 02:32:11;;;;;;;1.57;1.30;;;23.90;51.20;;;;;;4976432;28;20441;-48
2022/09/09 02:34:42;;;;;;;1.97;1.13;;;24.00;51.00;;;;;;4983281;28;20583;-48
2022/09/09 02:37:10;;;;;;;1.63;1.30;;;24.00;50.70;;;;;;4989914;28;20438;-47
2022/09/09 02:39:36;;;;;;;1.60;1.43;;;24.10;50.60;;;;;;4978491;28;20458;-47
2022/09/09 02:42:03;;;;;;;1.47;1.37;;;24.10;50.90;;;;;;4980780;28;20449;-47
2022/09/09 02:44:29;;;;;;;1.40;1.30;;;24.10;50.40;;;;;;4984944;28;20203;-47
2022/09/09 02:47:20;;;;;;;1.40;1.27;;;24.10;50.50;;;;;;4985508;28;20441;-46
2022/09/09 02:50:03;;;;;;;3.20;1.53;;;24.10;50.30;;;;;;4986135;28;20190;-46
2022/09/09 02:52:55;;;;;;;1.37;1.20;;;24.10;50.30;;;;;;4985682;28;20461;-46
2022/09/09 02:55:36;;;;;;;4.73;1.40;;;24.20;50.30;;;;;;4981647;28;20453;-46
2022/09/09 02:58:06;;;;;;;1.30;1.20;;;24.10;50.10;;;;;;4989027;28;20457;-47
2022/09/09 03:00:33;;;;;;;3.13;1.57;;;24.10;50.00;;;;;;4983659;28;20454;-46
2022/09/09 03:02:58;;;;;;;1.97;1.30;;;24.10;49.50;;;;;;4981955;28;20495;-46
2022/09/09 03:05:25;;;;;;;1.23;1.10;;;24.20;49.90;;;;;;4976872;28;20949;-47
2022/09/09 03:07:50;;;;;;;1.37;1.10;;;24.10;49.60;;;;;;4988805;28;20194;-51
2022/09/09 03:10:17;;;;;;;2.17;1.43;;;24.10;49.50;;;;;;4981759;28;20442;-48
2022/09/09 03:12:43;;;;;;;2.00;1.30;;;24.10;49.90;;;;;;4978338;28;20229;-46
2022/09/09 03:15:09;;;;;;;2.17;1.30;;;24.10;50.00;;;;;;4985998;28;20452;-47
2022/09/09 03:17:35;;;;;;;1.70;1.33;;;24.10;49.70;;;;;;4988855;28;20441;-46
2022/09/09 03:20:03;;;;;;;2.33;1.30;;;24.20;49.70;;;;;;4988092;28;20446;-46
2022/09/09 03:22:28;;;;;;;1.43;1.17;;;24.20;49.70;;;;;;4978252;28;20710;-48
2022/09/09 03:24:54;;;;;;;1.93;1.40;;;24.20;49.50;;;;;;4979182;28;20485;-46
2022/09/09 03:27:19;;;;;;;3.37;1.40;;;24.20;49.70;;;;;;4987094;28;20199;-47
2022/09/09 03:29:46;;;;;;;1.47;1.00;;;24.20;49.50;;;;;;4977294;28;20254;-48
2022/09/09 03:32:12;;;;;;;1.30;1.20;;;24.20;49.60;;;;;;4984203;28;20279;-47
2022/09/09 03:34:40;;;;;;;1.80;1.70;;;24.10;49.60;;;;;;4977289;28;20441;-47
2022/09/09 03:37:06;;;;;;;2.00;1.70;;;24.20;48.70;;;;;;4980518;28;20499;-50
2022/09/09 03:39:31;;;;;;;2.03;1.37;;;23.80;48.30;;;;;;4982570;28;20437;-48
2022/09/09 03:41:57;;;;;;;2.70;1.53;;;23.30;49.20;;;;;;4983959;28;20569;-49
2022/09/09 03:44:23;;;;;;;2.80;1.40;;;23.10;49.60;;;;;;4981786;28;20206;-47
2022/09/09 03:46:48;;;;;;;2.60;1.50;;;22.70;50.50;;;;;;4977253;28;20208;-48
2022/09/09 03:49:15;;;;;;;1.83;1.50;;;22.20;51.60;;;;;;4981508;28;20199;-48
2022/09/09 03:51:41;;;;;;;4.27;1.50;;;22.00;52.20;;;;;;4978320;28;20210;-47
2022/09/09 03:54:09;;;;;;;4.67;1.50;;;21.90;52.60;;;;;;4978913;28;20581;-47
2022/09/09 03:56:36;;;;;;;3.50;1.50;;;21.70;52.80;;;;;;4974288;28;20447;-50
2022/09/09 03:59:03;;;;;;;3.50;1.30;;;21.50;53.40;;;;;;4978443;28;20442;-46
2022/09/09 04:01:29;;;;;;;2.60;1.50;;;21.20;54.00;;;;;;4983340;28;20478;-47
2022/09/09 04:03:57;;;;;;;2.43;1.27;;;21.00;54.30;;;;;;4979233;28;21237;-49
2022/09/09 04:06:24;;;;;;;2.20;1.37;;;20.90;54.80;;;;;;4986606;28;20202;-47
2022/09/09 04:08:51;;;;;;;1.73;1.30;;;20.90;54.90;;;;;;4989237;28;20500;-49
2022/09/09 04:11:17;;;;;;;3.77;1.40;;;20.90;54.60;;;;;;4981348;28;20450;-46
2022/09/09 04:13:44;;;;;;;1.73;1.63;;;20.70;54.50;;;;;;4984331;28;20852;-47
2022/09/09 04:16:11;;;;;;;2.87;1.40;;;20.60;54.90;;;;;;4986069;28;20253;-47
2022/09/09 04:18:37;;;;;;;3.93;1.27;;;20.60;54.80;;;;;;4983265;28;20449;-46
2022/09/09 04:21:04;;;;;;;2.17;1.50;;;20.60;54.60;;;;;;4986209;28;20476;-47
2022/09/09 04:23:29;;;;;;;2.50;1.27;;;20.60;54.70;;;;;;4984643;28;20237;-46
2022/09/09 04:25:57;;;;;;;4.03;1.43;;;20.60;55.00;;;;;;4989390;28;20437;-46
2022/09/09 04:28:24;;;;;;;3.20;1.30;;;20.30;55.50;;;;;;4986017;28;20230;-47
2022/09/09 04:30:51;;;;;;;4.50;1.60;;;20.40;55.60;;;;;;4986637;28;20949;-47
2022/09/09 04:33:19;;;;;;;1.60;1.40;;;20.20;55.80;;;;;;4982931;28;20442;-47
2022/09/09 04:35:47;;;;;;;2.27;1.43;;;20.10;56.30;;;;;;4983727;28;20442;-50
2022/09/09 04:38:13;;;;;;;3.60;1.87;;;20.20;56.10;;;;;;4988346;28;20865;-48
2022/09/09 04:40:42;;;;;;;4.90;1.23;;;20.40;55.60;;;;;;4992021;28;20452;-48
2022/09/09 04:43:08;;;;;;;3.90;1.20;;;20.50;55.30;;;;;;4981964;28;20490;-46
2022/09/09 04:45:34;;;;;;;4.30;1.20;;;20.20;55.30;;;;;;4986421;28;20573;-47
2022/09/09 04:48:00;;;;;;;2.70;1.27;;;20.40;55.10;;;;;;4984626;28;20880;-46
2022/09/09 04:50:26;;;;;;;1.80;1.30;;;20.50;54.90;;;;;;4980415;28;20286;-49
2022/09/09 04:52:51;;;;;;;3.03;1.60;;;20.40;55.20;;;;;;4986437;28;20442;-48
2022/09/09 04:55:17;;;;;;;1.93;1.50;;;20.40;55.50;;;;;;4984689;28;20686;-46
2022/09/09 04:57:43;;;;;;;2.83;1.30;;;20.20;56.00;;;;;;4983309;28;20193;-47
2022/09/09 05:00:10;;;;;;;2.80;1.50;;;20.10;56.50;;;;;;4987245;28;20294;-47
2022/09/09 05:02:39;;;;;;;2.10;1.20;;;20.20;56.60;;;;;;4980453;28;20236;-46
2022/09/09 05:05:06;;;;;;;1.70;1.30;;;20.10;56.60;;;;;;4978773;28;20512;-50
2022/09/09 05:07:32;;;;;;;2.50;1.60;;;20.10;56.50;;;;;;4980019;28;20447;-46
2022/09/09 05:09:57;;;;;;;2.17;1.50;;;20.30;56.30;;;;;;4988487;28;20448;-46
2022/09/09 05:12:25;;;;;;;3.47;1.60;;;20.50;55.90;;;;;;4990950;28;20476;-47
2022/09/09 05:14:51;;;;;;;5.10;2.30;;;20.60;55.50;;;;;;4988624;28;20244;-46
2022/09/09 05:17:17;;;;;;;3.37;1.30;;;20.60;59.90;;;;;;4987233;28;20442;-46
2022/09/09 05:19:43;;;;;;;3.80;1.50;;;20.90;58.90;;;;;;4989105;28;20537;-47
2022/09/09 05:22:10;;;;;;;1.60;1.30;;;21.20;56.80;;;;;;4980421;28;20892;-46
2022/09/09 05:24:36;;;;;;;1.77;1.67;;;21.50;55.30;;;;;;4974827;28;20557;-47
2022/09/09 05:27:02;;;;;;;5.53;1.87;;;21.70;53.90;;;;;;4980352;28;20571;-46
2022/09/09 05:29:28;;;;;;;3.10;1.50;;;21.70;54.00;;;;;;4981336;28;20183;-46
2022/09/09 05:31:54;;;;;;;3.23;1.43;;;21.50;53.70;;;;;;4983670;28;20198;-47
2022/09/09 05:34:20;;;;;;;2.20;1.47;;;21.50;54.20;;;;;;4985845;28;20209;-47
2022/09/09 05:36:46;;;;;;;3.83;1.50;;;21.40;54.00;;;;;;4989705;28;20457;-47
2022/09/09 05:39:12;;;;;;;4.43;1.67;;;20.90;54.80;;;;;;4981772;28;20549;-46
2022/09/09 05:41:37;;;;;;;3.10;1.43;;;20.70;55.90;;;;;;4990633;28;20540;-47
2022/09/09 05:44:03;;;;;;;3.33;1.10;;;20.70;56.40;;;;;;4988709;28;20226;-47
2022/09/09 05:46:29;;;;;;;2.47;1.13;;;20.70;55.90;;;;;;4983952;28;20202;-46
2022/09/09 05:48:55;;;;;;;5.33;1.50;;;20.50;56.30;;;;;;4993315;28;20285;-48
2022/09/09 05:51:24;;;;;;;2.70;1.33;;;20.90;56.00;;;;;;4982454;28;20529;-46
2022/09/09 05:53:51;;;;;;;3.10;1.40;;;21.10;55.30;;;;;;4993291;28;20202;-47
2022/09/09 05:56:25;;;;;;;2.50;1.50;;;21.30;54.50;;;;;;4987870;28;20460;-46
2022/09/09 05:58:53;;;;;;;5.10;1.73;;;21.60;54.10;;;;;;4989892;28;20442;-51
2022/09/09 06:01:26;;;;;;;2.30;1.30;;;21.30;54.40;;;;;;4990027;28;20456;-46
2022/09/09 06:03:52;;;;;;;4.47;1.40;;;21.40;54.50;;;;;;4988807;28;20493;-48
2022/09/09 06:06:21;;;;;;;3.77;1.93;;;21.60;54.20;;;;;;4974092;28;20442;-46
2022/09/09 06:08:50;;;;;;;3.17;1.43;;;21.80;54.10;;;;;;4976305;28;20545;-49
2022/09/09 06:11:19;;;;;;;5.83;1.53;;;21.90;53.60;;;;;;4974623;28;20456;-51
2022/09/09 06:13:44;;;;;;;7.43;1.53;;;21.80;54.00;;;;;;4991876;28;20466;-51
2022/09/09 06:16:12;;;;;;;1.40;1.30;;;21.80;54.10;;;;;;4989717;28;20480;-50
2022/09/09 06:18:38;;;;;;;2.40;1.47;;;21.50;54.80;;;;;;4984192;28;20191;-48
2022/09/09 06:21:06;;;;;;;3.30;1.40;;;21.60;54.60;;;;;;4972389;28;20431;-48
2022/09/09 06:23:34;;;;;;;3.63;1.73;;;21.60;54.60;;;;;;4977494;28;20490;-50
2022/09/09 06:26:11;;;;;;;3.60;1.33;;;21.40;55.00;;;;;;4986440;28;20453;-46
2022/09/09 06:28:37;;;;;;;1.77;1.63;;;21.60;55.00;;;;;;4983373;28;20460;-49
2022/09/09 06:31:08;;;;;;;2.40;1.67;;;21.60;55.00;;;;;;4981139;28;20445;-46
2022/09/09 06:33:42;;;;;;;1.60;1.27;;;21.60;54.80;;;;;;4977389;28;20426;-48
2022/09/09 06:36:11;;;;;;;2.30;1.20;;;21.70;54.70;;;;;;4991510;28;20500;-49
2022/09/09 06:38:38;;;;;;;3.50;1.10;;;21.80;54.60;;;;;;4992367;28;20433;-51
2022/09/09 06:41:05;;;;;;;2.20;1.20;;;21.70;55.20;;;;;;4990591;28;20966;-47
2022/09/09 06:43:31;;;;;;;3.43;1.50;;;21.60;54.70;;;;;;4992094;28;20587;-47
2022/09/09 06:45:59;;;;;;;3.20;1.50;;;21.70;54.70;;;;;;4991469;28;20422;-47
2022/09/09 06:48:26;;;;;;;2.00;1.63;;;21.90;54.30;;;;;;4992355;28;20430;-47
2022/09/09 06:51:05;;;;;;;5.73;1.40;;;22.00;54.20;;;;;;4989700;28;20478;-46
2022/09/09 06:53:33;;;;;;;1.80;1.33;;;22.10;54.00;;;;;;4992115;28;20434;-49
2022/09/09 06:56:16;;;;;;;1.50;1.23;;;22.20;53.70;;;;;;4989702;28;20434;-46
2022/09/09 06:58:43;;;;;;;2.17;1.10;;;22.30;53.30;;;;;;4992022;28;20517;-48
2022/09/09 07:01:14;;;;;;;3.50;1.60;;;22.50;53.30;;;;;;4990436;28;20886;-47
2022/09/09 07:03:41;;;;;;;4.20;1.80;;;22.30;53.00;;;;;;4991626;28;21166;-51
2022/09/09 07:06:09;;;;;;;1.83;1.27;;;22.40;53.00;;;;;;4991357;28;20430;-49
2022/09/09 07:08:34;;;;;;;1.53;1.10;;;22.50;53.00;;;;;;4990399;28;20469;-48
2022/09/09 07:11:08;;;;;;;4.57;1.20;;;22.50;52.90;;;;;;4983021;28;20478;-47
2022/09/09 07:13:34;;;;;;;2.80;1.30;;;22.50;52.60;;;;;;4988752;28;20280;-47
2022/09/09 07:16:13;;;;;;;1.77;1.63;;;22.40;52.90;;;;;;4985106;28;20955;-48
2022/09/09 07:18:41;;;;;;;1.40;1.30;;;22.40;53.20;;;;;;4983700;28;20548;-47
2022/09/09 07:21:09;;;;;;;3.47;1.40;;;22.50;53.10;;;;;;4987053;28;20434;-47
2022/09/09 07:23:38;;;;;;;4.00;1.70;;;22.60;53.10;;;;;;4979308;28;20528;-47
2022/09/09 07:26:08;;;;;;;2.37;1.43;;;22.70;53.10;;;;;;4987453;28;20458;-46
2022/09/09 07:28:34;;;;;;;3.57;1.40;;;22.80;52.80;;;;;;4986980;28;20456;-50
2022/09/09 07:31:04;;;;;;;1.87;1.30;;;22.90;52.70;;;;;;4989460;28;20437;-49
2022/09/09 07:33:32;;;;;;;3.57;1.63;;;22.90;52.80;;;;;;4988301;28;20438;-46
2022/09/09 07:36:06;;;;;;;2.93;1.33;;;22.90;52.90;;;;;;4986723;28;20487;-46
2022/09/09 07:38:37;;;;;;;2.13;1.60;;;22.80;52.80;;;;;;4980980;28;20941;-46
2022/09/09 07:41:11;;;;;;;2.07;1.50;;;22.80;53.10;;;;;;4975291;28;20444;-49
2022/09/09 07:43:39;;;;;;;5.83;1.33;;;22.60;53.40;;;;;;4988220;28;20615;-46
2022/09/09 07:46:05;;;;;;;3.83;1.53;;;22.60;53.40;;;;;;4990562;28;20461;-46
2022/09/09 07:48:31;;;;;;;1.90;1.80;;;22.90;53.50;;;;;;4985219;28;20485;-46
2022/09/09 07:51:27;;;;;;;1.43;1.30;;;23.10;53.30;;;;;;4972751;28;20953;-49
2022/09/09 07:53:58;;;;;;;2.53;1.67;;;23.20;53.10;;;;;;4974900;28;20215;-47
2022/09/09 07:56:25;;;;;;;5.10;1.80;;;23.20;52.90;;;;;;4973924;28;20911;-47
2022/09/09 07:58:53;;;;;;;4.60;1.60;;;23.10;53.20;;;;;;4988543;28;20481;-47
2022/09/09 08:01:24;;;;;;;4.73;1.33;;;23.10;53.10;;;;;;4987986;28;20445;-48
2022/09/09 08:04:01;;;;;;;4.70;1.53;;;23.40;52.90;;;;;;4989854;28;20493;-47
2022/09/09 08:06:33;;;;;;;2.70;1.60;;;23.70;52.10;;;;;;4986351;28;20460;-47
2022/09/09 08:08:59;;;;;;;1.77;1.50;;;23.70;51.80;;;;;;4974574;28;20788;-46
2022/09/09 08:11:26;;;;;;;3.17;1.60;;;23.90;51.50;;;;;;4988557;28;21045;-47
2022/09/09 08:13:53;;;;;;;1.83;1.50;;;24.00;51.50;;;;;;4989328;28;20588;-47
2022/09/09 08:16:21;;;;;;;2.77;1.60;;;24.00;51.40;;;;;;4986986;28;20585;-48
2022/09/09 08:18:49;;;;;;;1.83;1.73;;;24.20;51.30;;;;;;4979567;28;20453;-47
2022/09/09 08:21:18;;;;;;;2.83;1.70;;;24.30;51.00;;;;;;4987878;28;20534;-47
2022/09/09 08:23:45;;;;;;;2.00;1.30;;;24.50;51.00;;;;;;4976719;28;20516;-47
2022/09/09 08:26:22;;;;;;;2.33;1.50;;;24.80;50.20;;;;;;4982601;28;20465;-48
2022/09/09 08:28:51;;;;;;;3.33;1.80;;;25.00;49.40;;;;;;4989455;28;20480;-47
2022/09/09 08:31:19;;;;;;;4.00;1.60;;;24.70;49.90;;;;;;4989587;28;20446;-47
2022/09/09 08:33:47;;;;;;;2.60;1.30;;;24.90;49.60;;;;;;4981195;28;21036;-49
2022/09/09 08:36:25;;;;;;;4.13;1.60;;;25.00;49.00;;;;;;4990053;28;20434;-47
2022/09/09 08:38:54;;;;;;;4.50;1.43;;;25.20;48.60;;;;;;4982648;28;20800;-47
2022/09/09 08:42:00;;;;;;;2.73;1.43;;;25.40;48.80;;;;;;4989813;28;20430;-47
2022/09/09 08:44:37;;;;;;;1.83;1.20;;;25.60;48.60;;;;;;4986134;28;20487;-47
2022/09/09 08:47:21;;;;;;;4.27;1.27;;;25.70;48.30;;;;;;4988464;28;20921;-47
2022/09/09 08:50:01;;;;;;;3.90;1.20;;;25.70;48.50;;;;;;4977789;28;20544;-46
2022/09/09 08:52:44;;;;;;;2.70;1.50;;;25.70;48.30;;;;;;4977931;28;20453;-47
2022/09/09 08:55:35;;;;;;;2.33;1.40;;;25.80;47.80;;;;;;4990319;28;20461;-50
2022/09/09 08:58:15;;;;;;;1.90;1.40;;;25.80;47.80;;;;;;4993551;28;20492;-51
2022/09/09 09:01:06;;;;;;;5.33;1.47;;;25.70;47.80;;;;;;4988701;28;20822;-51
2022/09/09 09:03:53;;;;;;;3.17;1.43;;;26.00;47.90;;;;;;4980763;28;21064;-51
2022/09/09 09:06:35;;;;;;;3.93;1.40;;;26.10;47.00;;;;;;4979470;28;21492;-50
2022/09/09 09:09:20;;;;;;;3.73;1.57;;;25.90;48.00;;;;;;4991575;28;20496;-47
2022/09/09 09:12:00;;;;;;;2.83;1.63;;;26.10;47.60;;;;;;4987861;28;20450;-51
2022/09/09 09:14:33;;;;;;;2.43;1.07;;;26.30;46.80;;;;;;4983728;28;20456;-50
2022/09/09 09:17:32;;;;;;;1.97;1.30;;;26.40;46.90;;;;;;4988790;28;20434;-49
2022/09/09 09:19:59;;;;;;;2.43;1.13;;;26.60;46.80;;;;;;4987660;28;21177;-48
2022/09/09 09:22:51;;;;;;;4.23;1.40;;;26.80;45.40;;;;;;4992582;28;20532;-48
2022/09/09 09:25:34;;;;;;;2.53;1.30;;;26.80;44.70;;;;;;4992340;28;20509;-47
2022/09/09 09:28:05;;;;;;;2.27;1.00;;;27.00;44.40;;;;;;4981666;28;20454;-47
2022/09/09 09:30:42;;;;;;;3.70;1.47;;;26.90;43.90;;;;;;4985911;28;20467;-47
2022/09/09 09:33:23;;;;;;;2.20;1.30;;;27.00;43.30;;;;;;4988225;28;20453;-48
2022/09/09 09:35:50;;;;;;;4.17;1.30;;;27.10;42.50;;;;;;4992323;28;20459;-47
2022/09/09 09:38:19;;;;;;;3.03;1.60;;;27.10;42.70;;;;;;4992266;28;20564;-47
2022/09/09 09:40:59;;;;;;;1.80;0.93;;;27.00;42.80;;;;;;4985767;28;20521;-47
2022/09/09 09:43:29;;;;;;;2.40;1.40;;;26.80;40.70;;;;;;4988909;28;20492;-49
2022/09/09 09:45:57;;;;;;;3.70;1.33;;;26.50;41.10;;;;;;4984114;28;20442;-47
2022/09/09 09:48:24;;;;;;;4.53;1.27;;;26.40;41.70;;;;;;4985226;28;20447;-48
2022/09/09 09:51:21;;;;;;;1.43;1.10;;;25.80;42.40;;;;;;4987256;28;20461;-47
2022/09/09 09:53:49;;;;;;;7.83;1.07;;;25.20;40.00;;;;;;4991731;28;20458;-48
2022/09/09 09:56:16;;;;;;;0.70;0.70;;;24.80;45.00;;;;;;4989554;28;20441;-47
2022/09/09 09:58:44;;;;;;;1.23;1.03;;;25.00;45.60;;;;;;4980687;28;20446;-48
2022/09/09 10:01:27;;;;;;;1.23;0.83;;;25.20;43.60;;;;;;4984506;28;20940;-48
2022/09/09 10:03:56;;;;;;;3.03;0.80;;;25.50;44.00;;;;;;4987577;28;20607;-47
2022/09/09 10:06:32;;;;;;;1.60;0.90;;;25.60;41.40;;;;;;4991666;28;20496;-50
2022/09/09 10:08:59;;;;;;;1.20;0.60;;;25.80;39.90;;;;;;4982908;28;20454;-47
2022/09/09 10:11:28;;;;;;;1.83;0.93;;;25.90;38.70;;;;;;4991454;28;20457;-47
2022/09/09 10:13:59;;;;;;;1.30;0.90;;;26.00;39.80;;;;;;4990390;28;20482;-47
2022/09/09 10:16:40;;;;;;;2.20;0.87;;;26.20;40.50;;;;;;4983390;28;20448;-47
2022/09/09 10:19:12;;;;;;;2.47;0.70;;;26.20;40.30;;;;;;4987283;28;20532;-47
2022/09/09 10:21:41;;;;;;;1.97;0.80;;;26.30;41.10;;;;;;4977048;28;20469;-51
2022/09/09 10:24:32;;;;;;;2.40;0.90;;;26.70;41.00;;;;;;4985978;28;20847;-47
2022/09/09 10:27:49;;;;;;;2.13;1.13;;;26.90;39.80;;;;;;4989513;28;20498;-47
2022/09/09 10:30:21;;;;;;;1.07;0.70;;;27.00;39.80;;;;;;5006001;28;20469;-49
2022/09/09 10:33:03;;;;;;;2.40;0.93;;;26.90;39.80;;;;;;4985878;28;20456;-47
2022/09/09 10:35:34;;;;;;;1.33;0.77;;;27.00;39.60;;;;;;4989940;28;20445;-47
2022/09/09 10:38:33;;;;;;;2.80;0.93;;;26.90;40.60;;;;;;4986657;28;20453;-47
2022/09/09 10:41:11;;;;;;;3.50;1.20;;;27.20;39.90;;;;;;4978149;28;20459;-48
2022/09/09 10:43:39;;;;;;;4.00;1.40;;;27.20;40.60;;;;;;4974425;28;20481;-47
2022/09/09 10:46:28;;;;;;;2.90;1.00;;;27.60;40.00;;;;;;4986409;28;20458;-47
2022/09/09 10:49:18;;;;;;;2.70;1.40;;;27.90;39.30;;;;;;4991208;28;20464;-47
2022/09/09 10:52:12;;;;;;;2.57;1.50;;;28.30;38.80;;;;;;4991423;28;20525;-48
2022/09/09 10:55:00;;;;;;;3.03;1.27;;;28.40;38.80;;;;;;4984419;28;20985;-46
2022/09/09 10:57:43;;;;;;;1.53;0.97;;;28.50;38.80;;;;;;4991156;28;20485;-49
2022/09/09 11:00:24;;;;;;;2.70;1.23;;;28.60;39.10;;;;;;4985176;28;21257;-48
2022/09/09 11:03:04;;;;;;;1.53;1.00;;;28.40;39.00;;;;;;4989865;28;20477;-50
2022/09/09 11:06:00;;;;;;;2.50;1.20;;;28.80;39.30;;;;;;4980715;28;20557;-47
2022/09/09 11:08:28;;;;;;;1.60;1.00;;;28.80;38.30;;;;;;4988250;28;20467;-51
2022/09/09 11:11:21;;;;;;;3.80;1.77;;;29.10;37.80;;;;;;4971452;28;20437;-47
2022/09/09 11:14:05;;;;;;;2.30;1.00;;;29.40;37.10;;;;;;4982379;28;20442;-47
2022/09/09 11:16:45;;;;;;;1.47;0.90;;;29.50;37.30;;;;;;4979659;28;20971;-47
2022/09/09 11:19:34;;;;;;;3.43;1.23;;;29.30;37.40;;;;;;4976242;28;20882;-47
2022/09/09 11:22:04;;;;;;;4.20;1.20;;;29.00;37.20;;;;;;4983722;28;20450;-47
2022/09/09 11:24:40;;;;;;;2.43;1.50;;;28.90;37.30;;;;;;4990203;28;20494;-47
2022/09/09 11:27:18;;;;;;;4.40;1.70;;;29.00;37.60;;;;;;4988811;28;20576;-47
2022/09/09 11:30:06;;;;;;;2.60;1.30;;;29.00;37.80;;;;;;4987712;28;20466;-47
2022/09/09 11:32:55;;;;;;;8.87;1.27;;;28.90;37.90;;;;;;4984748;28;20449;-47
2022/09/09 11:35:37;;;;;;;3.60;2.03;;;28.90;38.40;;;;;;4984449;28;20508;-47
2022/09/09 11:38:31;;;;;;;2.57;1.37;;;28.70;38.80;;;;;;4984697;28;20446;-49
2022/09/09 11:41:02;;;;;;;2.60;1.27;;;27.80;37.60;;;;;;4985552;28;20449;-47
2022/09/09 11:43:44;;;;;;;2.67;1.10;;;27.10;38.60;;;;;;4988740;28;20493;-46
2022/09/09 11:46:12;;;;;;;1.30;1.00;;;27.00;40.00;;;;;;4988697;28;20441;-47
2022/09/09 11:48:39;;;;;;;2.60;1.97;;;26.70;41.00;;;;;;4988302;28;20453;-49
2022/09/09 11:51:10;;;;;;;2.37;1.20;;;26.40;42.00;;;;;;4982713;28;21006;-48
2022/09/09 11:53:53;;;;;;;2.00;1.37;;;26.40;43.10;;;;;;4988399;28;20856;-47
2022/09/09 11:56:43;;;;;;;2.93;1.00;;;26.60;43.00;;;;;;4986853;28;20495;-47
2022/09/09 11:59:20;;;;;;;2.37;1.23;;;26.70;43.60;;;;;;4989102;28;20484;-47
2022/09/09 12:01:49;;;;;;;3.07;1.23;;;26.80;43.30;;;;;;4983484;28;20838;-47
2022/09/09 12:04:23;;;;;;;0.93;0.83;;;26.70;43.30;;;;;;4978818;28;20481;-48
2022/09/09 12:06:57;;;;;;;2.50;1.17;;;26.90;43.30;;;;;;4985531;28;20438;-48
2022/09/09 12:09:34;;;;;;;2.07;1.10;;;27.00;43.10;;;;;;4985784;28;20465;-47
2022/09/09 12:12:12;;;;;;;1.77;0.90;;;27.00;43.50;;;;;;4986239;28;20455;-48
2022/09/09 12:14:45;;;;;;;2.40;1.00;;;27.00;42.40;;;;;;4982499;28;20451;-49
2022/09/09 12:17:22;;;;;;;0.80;0.70;;;27.00;40.00;;;;;;4982997;28;20804;-48
2022/09/09 12:20:04;;;;;;;3.90;0.87;;;26.90;38.80;;;;;;4984090;28;20452;-47
2022/09/09 12:22:50;;;;;;;1.43;0.90;;;26.90;39.40;;;;;;4980936;28;20511;-47
2022/09/09 12:25:41;;;;;;;3.07;1.00;;;27.00;39.10;;;;;;4982534;28;20493;-47
2022/09/09 12:28:16;;;;;;;3.40;0.90;;;27.00;39.10;;;;;;4979686;28;20576;-47
2022/09/09 12:30:57;;;;;;;1.53;0.63;;;26.80;38.60;;;;;;4978416;28;20457;-47
2022/09/09 12:33:23;;;;;;;0.77;0.67;;;26.80;39.10;;;;;;4984815;28;20465;-50
2022/09/09 12:35:57;;;;;;;2.00;0.93;;;26.90;37.70;;;;;;4983021;28;20453;-47
2022/09/09 12:38:38;;;;;;;1.67;0.70;;;26.80;38.10;;;;;;4984066;28;20976;-50
2022/09/09 12:41:04;;;;;;;1.90;0.80;;;26.70;37.90;;;;;;4986839;28;20492;-49
2022/09/09 12:43:30;;;;;;;1.37;0.80;;;26.50;38.20;;;;;;4982976;28;20905;-50
2022/09/09 12:46:11;;;;;;;1.83;0.70;;;26.30;37.90;;;;;;4985603;28;20585;-51
2022/09/09 12:48:41;;;;;;;0.67;0.60;;;26.30;37.20;;;;;;4984879;28;20222;-48
2022/09/09 12:51:28;;;;;;;2.93;0.83;;;26.30;37.60;;;;;;4988224;28;20450;-49
2022/09/09 12:53:54;;;;;;;1.57;0.80;;;26.50;37.40;;;;;;4979324;28;20443;-48
2022/09/09 12:56:23;;;;;;;2.20;0.70;;;26.70;37.70;;;;;;4980690;28;20445;-47
2022/09/09 12:58:51;;;;;;;0.80;0.70;;;26.80;37.10;;;;;;4984869;28;20471;-50
2022/09/09 13:01:26;;;;;;;1.00;0.73;;;27.00;36.60;;;;;;4987083;28;20955;-47
2022/09/09 13:03:52;;;;;;;1.30;0.80;;;26.80;36.60;;;;;;4984624;28;20488;-51
2022/09/09 13:06:27;;;;;;;4.73;0.97;;;26.70;36.50;;;;;;4982481;28;20465;-51
2022/09/09 13:08:54;;;;;;;1.43;0.70;;;26.80;36.20;;;;;;4976897;28;20456;-48
2022/09/09 13:11:25;;;;;;;3.37;1.57;;;26.60;35.30;;;;;;4985296;28;20453;-50
2022/09/09 13:13:54;;;;;;;1.20;1.00;;;26.20;36.60;;;;;;4989255;28;20471;-46
2022/09/09 13:16:31;;;;;;;2.47;1.20;;;26.10;37.30;;;;;;4990857;28;20964;-48
2022/09/09 13:19:07;;;;;;;1.60;0.70;;;26.30;37.50;;;;;;4982768;28;20584;-46
2022/09/09 13:21:38;;;;;;;0.80;0.80;;;26.40;37.00;;;;;;4988043;28;20455;-48